Time,TemperatureF,DewpointF,PressureIn,WindDirection,WindDirectionDegrees,WindSpeedMPH,WindSpeedGustMPH,Humidity,HourlyPrecipIn,Conditions,Clouds,dailyrainin,SoftwareType,DateUTC
2013-05-20 00:02:00,75.0,68.0,29.93,SSW,208,1.0,4.0,79,0.00,,,0.00,,2013-05-20 05:02:00,
2013-05-20 00:12:00,75.0,68.0,29.93,SSW,208,1.0,4.0,79,0.00,,,0.00,,2013-05-20 05:12:00,
2013-05-20 00:22:00,75.0,68.0,29.93,SSW,202,1.0,4.0,80,0.00,,,0.00,,2013-05-20 05:22:00,
2013-05-20 00:32:00,74.0,68.0,29.93,SW,219,1.0,3.0,82,0.00,,,0.00,,2013-05-20 05:32:00,
2013-05-20 00:42:00,74.0,68.0,29.93,SW,219,1.0,3.0,82,0.00,,,0.00,,2013-05-20 05:42:00,
2013-05-20 00:51:00,74.0,68.0,29.93,WSW,239,2.0,6.0,82,0.00,,,0.00,,2013-05-20 05:51:00,
2013-05-20 01:01:00,74.0,68.0,29.93,SSW,203,1.0,4.0,82,0.00,,,0.00,,2013-05-20 06:01:00,
2013-05-20 01:11:00,74.0,68.0,29.93,SSW,203,1.0,4.0,82,0.00,,,0.00,,2013-05-20 06:11:00,
2013-05-20 01:21:00,74.0,68.0,29.93,SSW,207,0.0,3.0,83,0.00,,,0.00,,2013-05-20 06:21:00,
2013-05-20 01:32:00,74.0,69.0,29.92,SSW,207,0.0,3.0,84,0.00,,,0.00,,2013-05-20 06:32:00,
2013-05-20 01:41:00,74.0,69.0,29.92,SSW,207,0.0,3.0,84,0.00,,,0.00,,2013-05-20 06:41:00,
2013-05-20 01:52:00,74.0,69.0,29.92,SW,216,1.0,4.0,84,0.00,,,0.00,,2013-05-20 06:52:00,
2013-05-20 02:02:00,74.0,68.0,29.92,SSW,212,0.0,5.0,83,0.00,,,0.00,,2013-05-20 07:02:00,
2013-05-20 02:12:00,74.0,68.0,29.92,SSW,212,0.0,5.0,83,0.00,,,0.00,,2013-05-20 07:12:00,
2013-05-20 02:21:00,74.0,68.0,29.92,SSW,207,1.0,4.0,83,0.00,,,0.00,,2013-05-20 07:21:00,
2013-05-20 02:32:00,73.0,68.0,29.92,SW,228,0.0,1.0,83,0.00,,,0.00,,2013-05-20 07:32:00,
2013-05-20 02:42:00,73.0,68.0,29.92,SW,228,0.0,1.0,83,0.00,,,0.00,,2013-05-20 07:42:00,
2013-05-20 02:52:00,73.0,68.0,29.92,SW,228,0.0,1.0,84,0.00,,,0.00,,2013-05-20 07:52:00,
2013-05-20 03:01:00,72.0,67.0,29.92,SSW,207,0.0,3.0,85,0.00,,,0.00,,2013-05-20 08:01:00,
2013-05-20 03:11:00,72.0,67.0,29.92,SSW,207,0.0,3.0,85,0.00,,,0.00,,2013-05-20 08:11:00,
2013-05-20 03:21:00,72.0,67.0,29.92,SSW,198,0.0,1.0,85,0.00,,,0.00,,2013-05-20 08:21:00,
2013-05-20 03:32:00,72.0,68.0,29.92,SSW,198,0.0,2.0,86,0.00,,,0.00,,2013-05-20 08:32:00,
2013-05-20 03:41:00,72.0,68.0,29.92,SSW,198,0.0,2.0,86,0.00,,,0.00,,2013-05-20 08:41:00,
2013-05-20 03:51:00,72.0,68.0,29.92,South,183,0.0,2.0,86,0.00,,,0.00,,2013-05-20 08:51:00,
2013-05-20 04:02:00,71.0,67.0,29.92,South,191,0.0,2.0,87,0.00,,,0.00,,2013-05-20 09:02:00,
2013-05-20 04:12:00,71.0,67.0,29.92,South,191,0.0,2.0,87,0.00,,,0.00,,2013-05-20 09:12:00,
2013-05-20 04:21:00,71.0,67.0,29.92,SW,221,0.0,4.0,87,0.00,,,0.00,,2013-05-20 09:21:00,
2013-05-20 04:32:00,71.0,67.0,29.92,SSW,201,1.0,4.0,87,0.00,,,0.00,,2013-05-20 09:32:00,
2013-05-20 04:43:00,71.0,67.0,29.92,SSW,201,1.0,4.0,87,0.00,,,0.00,,2013-05-20 09:43:00,
2013-05-20 04:52:00,71.0,67.0,29.92,SSW,203,0.0,3.0,87,0.00,,,0.00,,2013-05-20 09:52:00,
2013-05-20 05:03:00,71.0,67.0,29.92,South,186,1.0,4.0,87,0.00,,,0.00,,2013-05-20 10:03:00,
2013-05-20 05:12:00,71.0,67.0,29.92,South,186,1.0,4.0,87,0.00,,,0.00,,2013-05-20 10:12:00,
2013-05-20 05:22:00,71.0,67.0,29.93,East,91,0.0,4.0,88,0.00,,,0.00,,2013-05-20 10:22:00,
2013-05-20 05:32:00,71.0,67.0,29.93,SSW,211,0.0,3.0,88,0.00,,,0.00,,2013-05-20 10:32:00,
2013-05-20 05:42:00,71.0,67.0,29.93,SSW,211,0.0,3.0,88,0.00,,,0.00,,2013-05-20 10:42:00,
2013-05-20 05:52:00,70.0,67.0,29.93,South,177,0.0,3.0,89,0.00,,,0.00,,2013-05-20 10:52:00,
2013-05-20 06:02:00,70.0,67.0,29.94,South,179,0.0,3.0,90,0.00,,,0.00,,2013-05-20 11:02:00,
2013-05-20 06:12:00,70.0,67.0,29.94,South,179,0.0,3.0,90,0.00,,,0.00,,2013-05-20 11:12:00,
2013-05-20 06:21:00,70.0,67.0,29.94,South,182,0.0,3.0,90,0.00,,,0.00,,2013-05-20 11:21:00,
2013-05-20 06:32:00,70.0,67.0,29.95,SSW,200,0.0,4.0,91,0.00,,,0.00,,2013-05-20 11:32:00,
2013-05-20 06:41:00,70.0,67.0,29.95,SSW,200,0.0,4.0,91,0.00,,,0.00,,2013-05-20 11:41:00,
2013-05-20 06:51:00,70.0,67.0,29.95,SW,219,0.0,3.0,91,0.00,,,0.00,,2013-05-20 11:51:00,
2013-05-20 07:01:00,70.0,67.0,29.95,South,178,0.0,2.0,91,0.00,,,0.00,,2013-05-20 12:01:00,
2013-05-20 07:11:00,70.0,67.0,29.95,South,178,0.0,2.0,91,0.00,,,0.00,,2013-05-20 12:11:00,
2013-05-20 07:21:00,71.0,68.0,29.96,South,179,1.0,4.0,90,0.00,,,0.00,,2013-05-20 12:21:00,
2013-05-20 07:32:00,72.0,68.0,29.97,SSW,205,2.0,6.0,88,0.00,,,0.00,,2013-05-20 12:32:00,
2013-05-20 07:41:00,72.0,68.0,29.97,SSW,205,2.0,6.0,88,0.00,,,0.00,,2013-05-20 12:41:00,
2013-05-20 07:52:00,73.0,69.0,29.96,SSW,213,2.0,7.0,88,0.00,,,0.00,,2013-05-20 12:52:00,
2013-05-20 08:01:00,73.0,69.0,29.96,SSW,203,4.0,10.0,86,0.00,,,0.00,,2013-05-20 13:01:00,
2013-05-20 08:11:00,73.0,69.0,29.96,SSW,203,4.0,10.0,86,0.00,,,0.00,,2013-05-20 13:11:00,
2013-05-20 08:22:00,74.0,70.0,29.97,SSW,213,4.0,9.0,86,0.00,,,0.00,,2013-05-20 13:22:00,
2013-05-20 08:31:00,74.0,70.0,29.97,South,180,3.0,9.0,86,0.00,,,0.00,,2013-05-20 13:31:00,
2013-05-20 08:41:00,74.0,70.0,29.97,South,180,3.0,9.0,86,0.00,,,0.00,,2013-05-20 13:41:00,
2013-05-20 08:52:00,75.0,70.0,29.97,South,181,3.0,9.0,84,0.00,,,0.00,,2013-05-20 13:52:00,
2013-05-20 09:01:00,76.0,70.0,29.98,SW,222,2.0,7.0,83,0.00,,,0.00,,2013-05-20 14:01:00,
2013-05-20 09:11:00,76.0,70.0,29.98,SW,222,2.0,7.0,83,0.00,,,0.00,,2013-05-20 14:11:00,
2013-05-20 09:22:00,76.0,70.0,29.98,NW,325,2.0,5.0,83,0.00,,,0.00,,2013-05-20 14:22:00,
2013-05-20 09:32:00,76.0,70.0,29.98,SSW,207,0.0,5.0,82,0.00,,,0.00,,2013-05-20 14:32:00,
2013-05-20 09:41:00,76.0,70.0,29.98,SSW,207,0.0,5.0,82,0.00,,,0.00,,2013-05-20 14:41:00,
2013-05-20 09:52:00,77.0,71.0,29.98,NNW,329,0.0,7.0,81,0.00,,,0.00,,2013-05-20 14:52:00,
2013-05-20 10:01:00,78.0,71.0,29.98,NW,323,0.0,7.0,80,0.00,,,0.00,,2013-05-20 15:01:00,
2013-05-20 10:11:00,78.0,71.0,29.98,NW,323,0.0,7.0,80,0.00,,,0.00,,2013-05-20 15:11:00,
2013-05-20 10:21:00,78.0,71.0,29.99,NW,317,0.0,6.0,80,0.00,,,0.00,,2013-05-20 15:21:00,
2013-05-20 10:33:00,78.0,71.0,29.98,NE,34,1.0,5.0,79,0.00,,,0.00,,2013-05-20 15:33:00,
2013-05-20 10:42:00,78.0,71.0,29.98,NE,34,1.0,5.0,79,0.00,,,0.00,,2013-05-20 15:42:00,
2013-05-20 10:53:00,79.0,72.0,29.98,NW,319,1.0,7.0,79,0.00,,,0.00,,2013-05-20 15:53:00,
2013-05-20 11:03:00,80.0,72.0,29.98,NNE,26,2.0,5.0,76,0.00,,,0.00,,2013-05-20 16:03:00,
2013-05-20 11:12:00,80.0,72.0,29.98,NNE,26,2.0,5.0,76,0.00,,,0.00,,2013-05-20 16:12:00,
2013-05-20 11:22:00,81.0,72.0,29.98,South,188,3.0,9.0,73,0.00,,,0.00,,2013-05-20 16:22:00,
2013-05-20 11:33:00,81.0,71.0,29.97,SW,232,3.0,7.0,71,0.00,,,0.00,,2013-05-20 16:33:00,
2013-05-20 11:42:00,81.0,71.0,29.97,SW,232,3.0,7.0,71,0.00,,,0.00,,2013-05-20 16:42:00,
2013-05-20 11:52:00,83.0,72.0,29.96,SSW,198,1.0,9.0,70,0.00,,,0.00,,2013-05-20 16:52:00,
2013-05-20 12:02:00,84.0,72.0,29.96,SW,219,4.0,11.0,67,0.00,,,0.00,,2013-05-20 17:02:00,
2013-05-20 12:12:00,84.0,72.0,29.96,SW,219,4.0,11.0,67,0.00,,,0.00,,2013-05-20 17:12:00,
2013-05-20 12:22:00,84.0,72.0,29.95,SSW,192,3.0,10.0,67,0.00,,,0.00,,2013-05-20 17:22:00,
2013-05-20 12:33:00,83.0,71.0,29.95,WNW,284,2.0,7.0,67,0.00,,,0.00,,2013-05-20 17:33:00,
2013-05-20 12:45:00,83.0,71.0,29.95,WNW,284,2.0,7.0,67,0.00,,,0.00,,2013-05-20 17:45:00,
2013-05-20 12:53:00,83.0,70.0,29.95,SW,224,5.0,13.0,65,0.00,,,0.00,,2013-05-20 17:53:00,
2013-05-20 13:02:00,83.0,70.0,29.95,SW,224,5.0,13.0,65,0.00,,,0.00,,2013-05-20 18:02:00,
2013-05-20 13:12:00,83.0,70.0,29.95,SW,224,5.0,13.0,65,0.00,,,0.00,,2013-05-20 18:12:00,
2013-05-20 13:23:00,83.0,69.0,29.95,SSW,211,4.0,10.0,63,0.00,,,0.00,,2013-05-20 18:23:00,
2013-05-20 13:32:00,84.0,70.0,29.95,South,176,3.0,15.0,63,0.00,,,0.00,,2013-05-20 18:32:00,
2013-05-20 13:42:00,84.0,70.0,29.95,South,176,3.0,15.0,63,0.00,,,0.00,,2013-05-20 18:42:00,
2013-05-20 13:55:00,85.0,70.0,29.95,SW,220,6.0,13.0,61,0.00,,,0.00,,2013-05-20 18:55:00,
2013-05-20 14:04:00,85.0,70.0,29.94,SSW,200,4.0,12.0,61,0.00,,,0.00,,2013-05-20 19:04:00,
2013-05-20 14:11:00,85.0,70.0,29.94,SSW,200,4.0,12.0,61,0.00,,,0.00,,2013-05-20 19:11:00,
2013-05-20 14:21:00,86.0,69.0,29.94,SSW,207,6.0,14.0,58,0.00,,,0.00,,2013-05-20 19:21:00,
2013-05-20 14:32:00,85.0,69.0,29.93,SW,222,6.0,14.0,58,0.00,,,0.00,,2013-05-20 19:32:00,
2013-05-20 14:41:00,85.0,69.0,29.93,SW,222,6.0,14.0,58,0.00,,,0.00,,2013-05-20 19:41:00,
2013-05-20 14:52:00,85.0,70.0,29.93,SSW,205,4.0,13.0,60,0.00,,,0.00,,2013-05-20 19:52:00,
2013-05-20 15:01:00,86.0,69.0,29.93,SSW,202,4.0,15.0,57,0.00,,,0.00,,2013-05-20 20:01:00,
2013-05-20 15:12:00,86.0,69.0,29.93,SSW,202,4.0,15.0,57,0.00,,,0.00,,2013-05-20 20:12:00,
2013-05-20 15:21:00,87.0,70.0,29.93,SW,236,1.0,11.0,57,0.00,,,0.00,,2013-05-20 20:21:00,
2013-05-20 15:32:00,87.0,69.0,29.92,WSW,248,2.0,10.0,55,0.00,,,0.00,,2013-05-20 20:32:00,
2013-05-20 15:42:00,87.0,69.0,29.92,WSW,248,2.0,10.0,55,0.00,,,0.00,,2013-05-20 20:42:00,
2013-05-20 15:51:00,87.0,70.0,29.92,SSW,197,4.0,12.0,58,0.00,,,0.00,,2013-05-20 20:51:00,
2013-05-20 16:01:00,86.0,71.0,29.91,SW,215,4.0,12.0,61,0.00,,,0.00,,2013-05-20 21:01:00,
2013-05-20 16:11:00,86.0,71.0,29.91,SW,215,4.0,12.0,61,0.00,,,0.00,,2013-05-20 21:11:00,
2013-05-20 16:21:00,86.0,72.0,29.91,South,190,3.0,9.0,63,0.00,,,0.00,,2013-05-20 21:21:00,
2013-05-20 16:33:00,86.0,72.0,29.91,South,190,3.0,9.0,63,0.00,,,0.00,,2013-05-20 21:33:00,
2013-05-20 16:43:00,85.0,71.0,29.90,SSW,209,4.0,10.0,63,0.00,,,0.00,,2013-05-20 21:43:00,
2013-05-20 16:53:00,85.0,71.0,29.90,SSW,209,4.0,10.0,63,0.00,,,0.00,,2013-05-20 21:53:00,
2013-05-20 17:02:00,85.0,71.0,29.90,SSW,192,4.0,10.0,63,0.00,,,0.00,,2013-05-20 22:02:00,
2013-05-20 17:12:00,85.0,71.0,29.90,SSW,192,4.0,10.0,63,0.00,,,0.00,,2013-05-20 22:12:00,
2013-05-20 17:23:00,85.0,70.0,29.90,South,175,4.0,10.0,62,0.00,,,0.00,,2013-05-20 22:23:00,
2013-05-20 17:33:00,85.0,70.0,29.89,SSW,213,5.0,12.0,62,0.00,,,0.00,,2013-05-20 22:33:00,
2013-05-20 17:42:00,85.0,70.0,29.89,SSW,213,5.0,12.0,62,0.00,,,0.00,,2013-05-20 22:42:00,
2013-05-20 17:52:00,84.0,70.0,29.88,SSW,202,4.0,8.0,64,0.00,,,0.00,,2013-05-20 22:52:00,
2013-05-20 18:03:00,84.0,70.0,29.88,SSW,200,4.0,12.0,63,0.00,,,0.00,,2013-05-20 23:03:00,
2013-05-20 18:12:00,84.0,70.0,29.88,SSW,200,4.0,12.0,63,0.00,,,0.00,,2013-05-20 23:12:00,
2013-05-20 18:22:00,84.0,70.0,29.87,SSW,203,4.0,11.0,63,0.00,,,0.00,,2013-05-20 23:22:00,
2013-05-20 18:32:00,84.0,70.0,29.86,South,177,5.0,11.0,63,0.00,,,0.00,,2013-05-20 23:32:00,
2013-05-20 18:42:00,84.0,70.0,29.86,South,177,5.0,11.0,63,0.00,,,0.00,,2013-05-20 23:42:00,
2013-05-20 18:52:00,84.0,70.0,29.86,South,175,5.0,10.0,64,0.00,,,0.00,,2013-05-20 23:52:00,
2013-05-20 19:01:00,83.0,70.0,29.85,SW,219,3.0,9.0,66,0.00,,,0.00,,2013-05-21 00:01:00,
2013-05-20 19:11:00,83.0,70.0,29.85,SW,219,3.0,9.0,66,0.00,,,0.00,,2013-05-21 00:11:00,
2013-05-20 19:21:00,83.0,70.0,29.85,South,191,3.0,14.0,66,0.00,,,0.00,,2013-05-21 00:21:00,
2013-05-20 19:32:00,82.0,70.0,29.84,SSE,164,3.0,7.0,67,0.00,,,0.00,,2013-05-21 00:32:00,
2013-05-20 19:42:00,82.0,70.0,29.84,SSE,164,3.0,7.0,67,0.00,,,0.00,,2013-05-21 00:42:00,
2013-05-20 19:52:00,82.0,70.0,29.84,SSE,164,3.0,7.0,67,0.00,,,0.00,,2013-05-21 00:52:00,
2013-05-20 20:01:00,81.0,70.0,29.85,SSW,209,3.0,10.0,69,0.00,,,0.00,,2013-05-21 01:01:00,
2013-05-20 20:11:00,81.0,70.0,29.85,SSW,209,3.0,10.0,69,0.00,,,0.00,,2013-05-21 01:11:00,
2013-05-20 20:22:00,80.0,69.0,29.85,SSW,199,3.0,7.0,69,0.00,,,0.00,,2013-05-21 01:22:00,
2013-05-20 20:32:00,80.0,69.0,29.85,SSW,207,3.0,7.0,70,0.00,,,0.00,,2013-05-21 01:32:00,
2013-05-20 20:42:00,80.0,69.0,29.85,SSW,207,3.0,7.0,70,0.00,,,0.00,,2013-05-21 01:42:00,
2013-05-20 20:52:00,79.0,69.0,29.87,SSE,153,2.0,5.0,71,0.00,,,0.00,,2013-05-21 01:52:00,
2013-05-20 21:02:00,79.0,69.0,29.88,South,185,2.0,6.0,72,0.00,,,0.00,,2013-05-21 02:02:00,
2013-05-20 21:11:00,79.0,69.0,29.88,South,185,2.0,6.0,72,0.00,,,0.00,,2013-05-21 02:11:00,
2013-05-20 21:21:00,78.0,69.0,29.88,SSW,205,2.0,5.0,75,0.00,,,0.00,,2013-05-21 02:21:00,
2013-05-20 21:32:00,77.0,69.0,29.88,SSW,205,1.0,5.0,77,0.00,,,0.00,,2013-05-21 02:32:00,
2013-05-20 21:42:00,77.0,69.0,29.88,SSW,205,1.0,5.0,77,0.00,,,0.00,,2013-05-21 02:42:00,
2013-05-20 21:52:00,77.0,70.0,29.87,SSW,202,2.0,5.0,79,0.00,,,0.00,,2013-05-21 02:52:00,
2013-05-20 22:02:00,77.0,70.0,29.87,South,189,3.0,7.0,79,0.00,,,0.00,,2013-05-21 03:02:00,
2013-05-20 22:11:00,77.0,70.0,29.87,South,189,3.0,7.0,79,0.00,,,0.00,,2013-05-21 03:11:00,
2013-05-20 22:21:00,77.0,70.0,29.88,SSW,194,1.0,8.0,79,0.00,,,0.00,,2013-05-21 03:21:00,
2013-05-20 22:33:00,77.0,70.0,29.88,SSW,201,3.0,7.0,80,0.00,,,0.00,,2013-05-21 03:33:00,
2013-05-20 22:43:00,77.0,70.0,29.88,South,172,3.0,8.0,80,0.00,,,0.00,,2013-05-21 03:43:00,
2013-05-20 22:53:00,77.0,70.0,29.88,South,172,3.0,8.0,80,0.00,,,0.00,,2013-05-21 03:53:00,
2013-05-20 23:03:00,77.0,70.0,29.88,SSW,196,5.0,10.0,79,0.00,,,0.00,,2013-05-21 04:03:00,
2013-05-20 23:13:00,77.0,70.0,29.88,SSW,196,5.0,10.0,79,0.00,,,0.00,,2013-05-21 04:13:00,
2013-05-20 23:23:00,77.0,70.0,29.89,South,169,3.0,8.0,78,0.00,,,0.00,,2013-05-21 04:23:00,
2013-05-20 23:33:00,77.0,70.0,29.90,SSW,209,4.0,10.0,79,0.00,,,0.00,,2013-05-21 04:33:00,
2013-05-20 23:42:00,77.0,70.0,29.90,SSW,209,4.0,10.0,79,0.00,,,0.00,,2013-05-21 04:42:00,
2013-05-20 23:52:00,77.0,70.0,29.90,SSW,196,4.0,9.0,79,0.00,,,0.00,,2013-05-21 04:52:00,